Terminal Aerodrome Forecast
Issued by NWS Blacksburg, VA

Home | Current Version | Previous Version | Text Only | Print | Product List | Glossary On
Versions: 1 2 3 4 5 6 7 8 9 10 11 12 13 14
000
FTUS41 KRNK 040520
TAFDAN
TAF
KDAN 040520Z 0406/0506 VRB03KT P6SM OVC220
     FM041200 08004KT P6SM OVC100
     FM042000 11005KT P6SM -RA SCT025 OVC050
     FM050000 13005KT 4SM -RA BR OVC015=

USA.gov is the U.S. government's official web portal to all federal, state and local government web resources and services.